createdAt,value
2022-12-11T00:13:46.275Z,-0.94
2022-12-11T00:28:51.269Z,-0.88
2022-12-11T00:43:56.300Z,-0.94
2022-12-11T00:59:01.295Z,-0.88
2022-12-11T01:14:06.274Z,-0.88
2022-12-11T01:29:11.314Z,-1
2022-12-11T01:44:16.327Z,-0.94
2022-12-11T01:59:21.358Z,-0.94
2022-12-11T02:14:26.372Z,-0.94
2022-12-11T02:29:31.377Z,-0.88
2022-12-11T02:44:36.395Z,-0.88
2022-12-11T02:59:41.350Z,-0.75
2022-12-11T03:14:44.430Z,-0.69
2022-12-11T03:29:49.398Z,-0.75
2022-12-11T03:44:54.414Z,-0.75
2022-12-11T03:59:57.448Z,-0.75
2022-12-11T04:15:02.466Z,-0.75
2022-12-11T04:30:07.478Z,-0.63
2022-12-11T04:45:12.852Z,-0.75
2022-12-11T05:00:17.487Z,-0.69
2022-12-11T05:15:24.512Z,-0.69
2022-12-11T05:45:32.535Z,-0.82
2022-12-11T06:00:37.530Z,-0.69
2022-12-11T06:15:42.529Z,-0.63
2022-12-11T06:30:47.560Z,-0.63
2022-12-11T06:45:52.635Z,-0.69
2022-12-11T07:00:57.642Z,-0.57
2022-12-11T07:16:02.622Z,-0.57
2022-12-11T07:31:07.616Z,-0.57
2022-12-11T07:46:12.653Z,-0.5
2022-12-11T08:16:22.769Z,-0.44
2022-12-11T08:31:25.641Z,-0.44
2022-12-11T08:46:37.680Z,-0.38
2022-12-11T09:01:49.735Z,-0.38
2022-12-11T09:17:01.669Z,-0.32
2022-12-11T09:32:13.685Z,-0.19
2022-12-11T09:47:25.690Z,-0.25
2022-12-11T10:02:35.737Z,-0.19
2022-12-11T10:17:40.731Z,-0.07
2022-12-11T10:32:45.735Z,-0.07
2022-12-11T10:47:50.753Z,0
2022-12-11T11:02:55.790Z,-0.07
2022-12-11T11:18:00.791Z,-0.13
2022-12-11T11:33:05.760Z,-0.07
2022-12-11T11:48:11.587Z,0
2022-12-11T12:03:15.940Z,0
2022-12-11T12:18:20.796Z,0.06
2022-12-11T12:33:25.817Z,0.06
2022-12-11T12:48:30.841Z,0.12
2022-12-11T13:03:35.843Z,0.06
2022-12-11T13:18:40.840Z,0.12
2022-12-11T13:33:45.911Z,0.12
2022-12-11T13:48:50.879Z,0.12
2022-12-11T14:03:55.874Z,0.12
2022-12-11T14:19:00.882Z,-0.07
2022-12-11T14:34:05.907Z,-0.07
2022-12-11T14:49:10.932Z,-0.07
2022-12-11T15:04:15.922Z,-0.25
2022-12-11T15:19:20.914Z,-0.19
2022-12-11T15:34:25.936Z,-0.38
2022-12-11T15:49:30.942Z,-0.5
2022-12-11T16:04:35.946Z,-0.38
2022-12-11T16:19:40.979Z,-0.32
2022-12-11T16:34:45.994Z,-0.32
2022-12-11T16:49:50.993Z,-0.44
2022-12-11T17:04:56.079Z,-0.38
2022-12-11T17:20:01.039Z,-0.44
2022-12-11T17:35:06.018Z,-0.32
2022-12-11T17:50:11.055Z,-0.44
2022-12-11T18:05:16.047Z,-0.19
2022-12-11T18:20:21.072Z,-0.5
2022-12-11T18:35:26.043Z,-0.57
2022-12-11T18:50:31.062Z,-0.5
2022-12-11T19:05:36.124Z,-0.57
2022-12-11T19:20:49.139Z,-0.57
2022-12-11T19:35:46.122Z,-0.63
2022-12-11T19:50:51.144Z,-0.57
2022-12-11T20:05:56.137Z,-0.38
2022-12-11T20:21:01.158Z,-0.38
2022-12-11T20:36:04.199Z,-0.38
2022-12-11T20:51:09.169Z,-0.5
2022-12-11T21:06:14.219Z,-0.44
2022-12-11T21:21:19.173Z,-0.44
2022-12-11T21:36:24.252Z,-0.38
2022-12-11T21:51:35.700Z,-0.32
2022-12-11T22:06:34.271Z,-0.44
2022-12-11T22:21:37.240Z,-0.57
2022-12-11T22:36:42.279Z,-0.57
2022-12-11T22:51:47.268Z,-0.57
2022-12-11T23:06:52.288Z,-0.44
2022-12-11T23:37:02.406Z,-0.5
2022-12-11T23:52:07.302Z,-0.5
